Time,TemperatureF,DewpointF,PressureIn,WindDirection,WindDirectionDegrees,WindSpeedMPH,WindSpeedGustMPH,Humidity,HourlyPrecipIn,Conditions,Clouds,dailyrainin,SolarRadiationWatts/m^2,SoftwareType,DateUTC
2013-02-06 00:00:00,53.4,50.2,30.02,East,91,0.0,5.0,89,0.00,,---,0.00,0.00,VWS V14.01,2013-02-06 06:00:00,
2013-02-06 00:05:00,53.2,50.0,30.02,East,91,0.0,0.0,89,0.00,,---,0.00,0.00,VWS V14.01,2013-02-06 06:05:00,
2013-02-06 00:10:00,53.1,50.2,30.02,East,91,0.0,0.0,90,0.00,,---,0.00,0.00,VWS V14.01,2013-02-06 06:10:00,
2013-02-06 00:15:00,53.2,50.3,30.02,East,91,0.0,0.0,90,0.00,,---,0.00,0.00,VWS V14.01,2013-02-06 06:15:00,
2013-02-06 00:20:00,53.3,50.5,30.02,East,91,0.0,0.0,90,0.00,,---,0.00,0.00,VWS V14.01,2013-02-06 06:20:00,
2013-02-06 00:25:00,53.4,50.5,30.02,East,91,0.0,0.0,90,0.00,,---,0.00,0.00,VWS V14.01,2013-02-06 06:25:00,
2013-02-06 00:30:00,53.5,50.6,30.02,East,91,0.0,1.0,90,0.00,,---,0.00,0.00,VWS V14.01,2013-02-06 06:30:00,
2013-02-06 00:35:00,53.5,50.6,30.02,East,91,0.0,0.0,90,0.00,,---,0.00,0.00,VWS V14.01,2013-02-06 06:35:00,
2013-02-06 00:40:00,53.5,50.6,30.01,East,91,0.0,0.0,90,0.00,,---,0.00,0.00,VWS V14.01,2013-02-06 06:40:00,
2013-02-06 00:45:00,53.5,50.6,30.01,East,91,0.0,0.0,90,0.00,,---,0.00,0.00,VWS V14.01,2013-02-06 06:45:00,
2013-02-06 00:50:00,53.4,50.5,30.01,East,91,0.0,1.0,90,0.00,,---,0.00,0.00,VWS V14.01,2013-02-06 06:50:00,
2013-02-06 00:55:00,53.3,50.5,30.01,East,91,0.0,1.0,90,0.00,,---,0.00,0.00,VWS V14.01,2013-02-06 06:55:00,
2013-02-06 01:00:00,53.2,50.7,30.01,East,91,0.0,1.0,91,0.00,,---,0.00,0.00,VWS V14.01,2013-02-06 07:00:00,
2013-02-06 01:05:00,53.1,50.5,30.00,East,91,0.0,1.0,91,0.00,,---,0.00,0.00,VWS V14.01,2013-02-06 07:05:00,
2013-02-06 01:10:00,52.9,50.3,30.00,East,91,0.0,5.0,91,0.00,,---,0.00,0.00,VWS V14.01,2013-02-06 07:10:00,
2013-02-06 01:15:00,52.8,50.2,30.00,East,91,0.0,6.0,91,0.00,,---,0.00,0.00,VWS V14.01,2013-02-06 07:15:00,
2013-02-06 01:20:00,52.8,50.2,30.00,East,91,0.0,6.0,91,0.00,,---,0.00,0.00,VWS V14.01,2013-02-06 07:20:00,
2013-02-06 01:25:00,52.8,50.2,29.99,East,91,0.0,6.0,91,0.00,,---,0.00,0.00,VWS V14.01,2013-02-06 07:25:00,
2013-02-06 01:30:00,52.8,50.2,29.99,East,91,0.0,6.0,91,0.00,,---,0.00,0.00,VWS V14.01,2013-02-06 07:30:00,
2013-02-06 01:35:00,52.8,50.2,29.99,East,91,0.0,6.0,91,0.00,,---,0.00,0.00,VWS V14.01,2013-02-06 07:35:00,
2013-02-06 01:40:00,52.7,50.2,29.99,East,91,0.0,6.0,91,0.00,,---,0.00,0.00,VWS V14.01,2013-02-06 07:40:00,
2013-02-06 01:45:00,52.6,50.0,29.99,East,91,0.0,7.0,91,0.00,,---,0.00,0.00,VWS V14.01,2013-02-06 07:45:00,
2013-02-06 01:50:00,52.5,50.0,29.99,East,92,2.0,8.0,91,0.00,,---,0.00,0.00,VWS V14.01,2013-02-06 07:50:00,
2013-02-06 01:55:00,52.3,49.8,29.99,East,92,3.0,8.0,91,0.00,,---,0.00,0.00,VWS V14.01,2013-02-06 07:55:00,
2013-02-06 02:00:00,52.3,49.8,29.99,East,91,0.0,8.0,91,0.00,,---,0.00,0.00,VWS V14.01,2013-02-06 08:00:00,
2013-02-06 02:05:00,52.2,49.7,29.99,East,84,1.0,10.0,91,0.00,,---,0.00,0.00,VWS V14.01,2013-02-06 08:05:00,
2013-02-06 02:10:00,52.2,49.7,30.00,ESE,105,5.0,10.0,91,0.00,,---,0.00,0.00,VWS V14.01,2013-02-06 08:10:00,
2013-02-06 02:15:00,52.2,49.7,30.00,ESE,122,2.0,10.0,91,0.00,,---,0.00,0.00,VWS V14.01,2013-02-06 08:15:00,
2013-02-06 02:20:00,52.2,50.0,30.00,SE,130,0.0,10.0,92,0.00,,---,0.00,0.00,VWS V14.01,2013-02-06 08:20:00,
2013-02-06 02:25:00,52.1,49.8,30.00,SE,130,0.0,10.0,92,0.00,,---,0.00,0.00,VWS V14.01,2013-02-06 08:25:00,
2013-02-06 02:30:00,52.1,49.8,30.00,SE,130,0.0,10.0,92,0.00,,---,0.00,0.00,VWS V14.01,2013-02-06 08:30:00,
2013-02-06 02:35:00,52.1,49.8,30.00,SE,130,0.0,5.0,92,0.00,,---,0.00,0.00,VWS V14.01,2013-02-06 08:35:00,
2013-02-06 02:40:00,52.1,49.8,30.00,SE,130,0.0,5.0,92,0.00,,---,0.00,0.00,VWS V14.01,2013-02-06 08:40:00,
2013-02-06 02:45:00,52.1,49.8,30.00,SE,130,0.0,5.0,92,0.00,,---,0.00,0.00,VWS V14.01,2013-02-06 08:45:00,
2013-02-06 02:50:00,52.1,49.8,30.00,SE,130,0.0,5.0,92,0.00,,---,0.00,0.00,VWS V14.01,2013-02-06 08:50:00,
2013-02-06 02:55:00,52.1,49.8,30.00,SE,130,0.0,5.0,92,0.00,,---,0.00,0.00,VWS V14.01,2013-02-06 08:55:00,
2013-02-06 03:00:00,52.2,50.0,30.00,SE,130,0.0,5.0,92,0.00,,---,0.00,0.00,VWS V14.01,2013-02-06 09:00:00,
2013-02-06 03:05:00,52.3,50.0,30.00,SE,130,0.0,4.0,92,0.00,,---,0.00,0.00,VWS V14.01,2013-02-06 09:05:00,
2013-02-06 03:10:00,52.3,50.0,29.99,SE,130,0.0,4.0,92,0.00,,---,0.00,0.00,VWS V14.01,2013-02-06 09:10:00,
2013-02-06 03:15:00,52.3,50.0,29.99,SE,130,0.0,4.0,92,0.00,,---,0.00,0.00,VWS V14.01,2013-02-06 09:15:00,
2013-02-06 03:20:00,52.3,50.0,29.99,SE,130,0.0,4.0,92,0.00,,---,0.00,0.00,VWS V14.01,2013-02-06 09:20:00,
2013-02-06 03:25:00,52.3,50.0,29.99,SE,130,0.0,4.0,92,0.00,,---,0.00,0.00,VWS V14.01,2013-02-06 09:25:00,
2013-02-06 03:30:00,52.4,50.2,29.99,SE,130,0.0,4.0,92,0.00,,---,0.00,0.00,VWS V14.01,2013-02-06 09:30:00,
2013-02-06 03:35:00,52.4,50.2,29.99,SE,130,0.0,0.0,92,0.00,,---,0.00,0.00,VWS V14.01,2013-02-06 09:35:00,
2013-02-06 03:40:00,52.4,50.2,29.99,SE,130,0.0,0.0,92,0.00,,---,0.00,0.00,VWS V14.01,2013-02-06 09:40:00,
2013-02-06 03:45:00,52.4,50.2,29.99,SE,130,0.0,0.0,92,0.00,,---,0.00,0.00,VWS V14.01,2013-02-06 09:45:00,
2013-02-06 03:49:00,52.4,50.2,29.99,SE,130,0.0,0.0,92,0.00,,---,0.00,0.00,VWS V14.01,2013-02-06 09:49:00,
2013-02-06 03:54:00,52.4,50.2,29.99,SE,130,0.0,0.0,92,0.00,,---,0.00,0.00,VWS V14.01,2013-02-06 09:54:00,
2013-02-06 03:59:00,52.5,50.2,29.99,SE,130,0.0,0.0,92,0.00,,---,0.00,0.00,VWS V14.01,2013-02-06 09:59:00,
2013-02-06 04:04:00,52.5,50.2,29.99,SE,130,0.0,0.0,92,0.00,,---,0.00,0.00,VWS V14.01,2013-02-06 10:04:00,
2013-02-06 04:09:00,52.5,50.2,29.99,SE,130,0.0,0.0,92,0.00,,---,0.00,0.00,VWS V14.01,2013-02-06 10:09:00,
2013-02-06 04:14:00,52.5,50.2,29.99,SE,130,0.0,0.0,92,0.00,,---,0.00,0.00,VWS V14.01,2013-02-06 10:14:00,
2013-02-06 04:19:00,52.6,50.3,29.99,SE,130,0.0,0.0,92,0.00,,---,0.00,0.00,VWS V14.01,2013-02-06 10:19:00,
2013-02-06 04:24:00,52.6,50.3,29.99,SE,130,0.0,1.0,92,0.00,,---,0.00,0.00,VWS V14.01,2013-02-06 10:24:00,
2013-02-06 04:29:00,52.7,50.5,29.99,SE,130,0.0,1.0,92,0.00,,---,0.00,0.00,VWS V14.01,2013-02-06 10:29:00,
2013-02-06 04:34:00,52.8,50.5,29.98,SE,130,0.0,0.0,92,0.00,,---,0.00,0.00,VWS V14.01,2013-02-06 10:34:00,
2013-02-06 04:39:00,52.8,50.5,29.98,SE,130,0.0,0.0,92,0.00,,---,0.00,0.00,VWS V14.01,2013-02-06 10:39:00,
2013-02-06 04:44:00,52.8,50.5,29.98,SE,130,0.0,0.0,92,0.00,,---,0.00,0.00,VWS V14.01,2013-02-06 10:44:00,
2013-02-06 04:49:00,52.8,50.5,29.98,SE,130,0.0,0.0,92,0.00,,---,0.00,0.00,VWS V14.01,2013-02-06 10:49:00,
2013-02-06 04:54:00,52.9,50.6,29.99,SE,130,0.0,0.0,92,0.00,,---,0.00,0.00,VWS V14.01,2013-02-06 10:54:00,
2013-02-06 04:59:00,52.9,50.6,29.98,SE,130,0.0,1.0,92,0.00,,---,0.00,0.00,VWS V14.01,2013-02-06 10:59:00,
2013-02-06 05:04:00,53.0,50.7,29.98,SE,130,0.0,1.0,92,0.00,,---,0.00,0.00,VWS V14.01,2013-02-06 11:04:00,
2013-02-06 05:09:00,53.0,51.0,29.98,SE,130,0.0,1.0,93,0.00,,---,0.00,0.00,VWS V14.01,2013-02-06 11:09:00,
2013-02-06 05:14:00,53.0,51.0,29.98,SE,130,0.0,1.0,93,0.00,,---,0.00,0.00,VWS V14.01,2013-02-06 11:14:00,
2013-02-06 05:19:00,53.1,51.1,29.98,SE,130,0.0,1.0,93,0.00,,---,0.00,0.00,VWS V14.01,2013-02-06 11:19:00,
2013-02-06 05:24:00,53.1,51.1,29.97,SE,130,0.0,1.0,93,0.00,,---,0.00,0.00,VWS V14.01,2013-02-06 11:24:00,
2013-02-06 05:29:00,53.1,51.1,29.97,SE,130,0.0,1.0,93,0.00,,---,0.00,0.00,VWS V14.01,2013-02-06 11:29:00,
2013-02-06 05:34:00,53.0,51.0,29.97,SE,130,0.0,0.0,93,0.00,,---,0.00,0.00,VWS V14.01,2013-02-06 11:34:00,
2013-02-06 05:39:00,53.0,51.0,29.98,SE,130,0.0,0.0,93,0.00,,---,0.00,0.00,VWS V14.01,2013-02-06 11:39:00,
2013-02-06 05:44:00,53.0,51.0,29.98,SE,130,0.0,0.0,93,0.00,,---,0.00,0.00,VWS V14.01,2013-02-06 11:44:00,
2013-02-06 05:49:00,53.0,50.7,29.97,SE,130,0.0,1.0,92,0.00,,---,0.00,0.00,VWS V14.01,2013-02-06 11:49:00,
2013-02-06 05:54:00,53.0,51.0,29.98,SE,130,0.0,1.0,93,0.00,,---,0.00,0.00,VWS V14.01,2013-02-06 11:54:00,
2013-02-06 05:59:00,53.0,51.0,29.97,SE,130,0.0,1.0,93,0.00,,---,0.00,0.00,VWS V14.01,2013-02-06 11:59:00,
2013-02-06 06:04:00,53.0,50.7,29.97,SE,130,0.0,1.0,92,0.00,,---,0.00,0.00,VWS V14.01,2013-02-06 12:04:00,
2013-02-06 06:09:00,53.0,50.7,29.97,SE,130,1.0,1.0,92,0.00,,---,0.00,0.00,VWS V14.01,2013-02-06 12:09:00,
2013-02-06 06:14:00,53.0,50.7,29.97,SE,130,0.0,1.0,92,0.00,,---,0.00,0.00,VWS V14.01,2013-02-06 12:14:00,
2013-02-06 06:19:00,52.9,50.9,29.97,SE,130,0.0,1.0,93,0.00,,---,0.00,0.00,VWS V14.01,2013-02-06 12:19:00,
2013-02-06 06:24:00,52.9,50.9,29.97,SE,130,0.0,1.0,93,0.00,,---,0.00,0.00,VWS V14.01,2013-02-06 12:24:00,
2013-02-06 06:29:00,52.9,50.9,29.97,SE,130,0.0,1.0,93,0.00,,---,0.00,0.00,VWS V14.01,2013-02-06 12:29:00,
2013-02-06 06:34:00,52.8,50.8,29.97,SE,130,0.0,0.0,93,0.00,,---,0.00,0.00,VWS V14.01,2013-02-06 12:34:00,
2013-02-06 06:39:00,52.7,50.7,29.96,SE,130,0.0,0.0,93,0.00,,---,0.00,0.00,VWS V14.01,2013-02-06 12:39:00,
2013-02-06 06:44:00,52.7,50.7,29.96,SE,130,0.0,0.0,93,0.00,,---,0.00,0.00,VWS V14.01,2013-02-06 12:44:00,
2013-02-06 06:49:00,52.6,50.6,29.96,SE,130,0.0,0.0,93,0.00,,---,0.00,0.00,VWS V14.01,2013-02-06 12:49:00,
2013-02-06 06:54:00,52.6,50.6,29.96,SE,130,0.0,0.0,93,0.00,,---,0.00,0.00,VWS V14.01,2013-02-06 12:54:00,
2013-02-06 06:59:00,52.7,50.7,29.96,SE,130,0.0,0.0,93,0.00,,---,0.00,0.00,VWS V14.01,2013-02-06 12:59:00,
2013-02-06 07:04:00,52.6,50.6,29.96,SE,130,0.0,0.0,93,0.00,,---,0.00,0.00,VWS V14.01,2013-02-06 13:04:00,
2013-02-06 07:09:00,52.7,50.7,29.96,SE,130,0.0,0.0,93,0.00,,---,0.00,0.00,VWS V14.01,2013-02-06 13:09:00,
2013-02-06 07:14:00,52.7,50.7,29.97,SE,130,0.0,0.0,93,0.00,,---,0.00,0.00,VWS V14.01,2013-02-06 13:14:00,
2013-02-06 07:19:00,52.7,50.7,29.97,SE,130,0.0,0.0,93,0.00,,---,0.00,0.00,VWS V14.01,2013-02-06 13:19:00,
2013-02-06 07:24:00,52.8,50.8,29.97,SE,130,0.0,0.0,93,0.00,,---,0.00,0.00,VWS V14.01,2013-02-06 13:24:00,
2013-02-06 07:29:00,52.8,50.8,29.97,SE,130,0.0,0.0,93,0.00,,---,0.00,0.00,VWS V14.01,2013-02-06 13:29:00,
2013-02-06 07:34:00,52.8,50.8,29.97,SE,130,0.0,0.0,93,0.00,,---,0.00,0.00,VWS V14.01,2013-02-06 13:34:00,
2013-02-06 07:39:00,52.8,50.8,29.96,SE,130,0.0,0.0,93,0.00,,---,0.00,0.00,VWS V14.01,2013-02-06 13:39:00,
2013-02-06 07:44:00,52.9,50.9,29.97,SE,130,0.0,0.0,93,0.00,,---,0.00,0.00,VWS V14.01,2013-02-06 13:44:00,
2013-02-06 07:49:00,53.0,51.0,29.96,SE,130,0.0,0.0,93,0.00,,---,0.00,0.00,VWS V14.01,2013-02-06 13:49:00,
2013-02-06 07:54:00,53.0,51.0,29.96,SE,130,0.0,0.0,93,0.00,,---,0.00,5.00,VWS V14.01,2013-02-06 13:54:00,
2013-02-06 07:59:00,53.1,51.1,29.96,SE,130,0.0,1.0,93,0.00,,---,0.00,14.00,VWS V14.01,2013-02-06 13:59:00,
2013-02-06 08:04:00,53.1,51.1,29.96,SE,130,0.0,3.0,93,0.00,,---,0.00,21.00,VWS V14.01,2013-02-06 14:04:00,
2013-02-06 08:09:00,53.2,51.2,29.96,SE,130,0.0,3.0,93,0.00,,---,0.00,16.00,VWS V14.01,2013-02-06 14:09:00,
2013-02-06 08:14:00,53.2,51.2,29.96,SE,130,0.0,3.0,93,0.00,,---,0.00,11.00,VWS V14.01,2013-02-06 14:14:00,
2013-02-06 08:19:00,53.3,51.3,29.96,SE,130,0.0,3.0,93,0.00,,---,0.00,11.00,VWS V14.01,2013-02-06 14:19:00,
2013-02-06 08:24:00,53.4,51.4,29.96,SE,128,0.0,5.0,93,0.00,,---,0.00,14.00,VWS V14.01,2013-02-06 14:24:00,
2013-02-06 08:29:00,53.5,51.5,29.97,SE,128,0.0,5.0,93,0.00,,---,0.00,21.00,VWS V14.01,2013-02-06 14:29:00,
2013-02-06 08:34:00,53.6,51.6,29.96,SE,128,1.0,1.0,93,0.00,,---,0.00,21.00,VWS V14.01,2013-02-06 14:34:00,
2013-02-06 08:39:00,53.8,51.8,29.96,SE,124,1.0,5.0,93,0.00,,---,0.00,32.00,VWS V14.01,2013-02-06 14:39:00,
2013-02-06 08:44:00,53.9,51.9,29.96,SE,124,0.0,5.0,93,0.00,,---,0.00,32.00,VWS V14.01,2013-02-06 14:44:00,
2013-02-06 08:49:00,54.0,52.0,29.96,SE,124,0.0,5.0,93,0.00,,---,0.00,39.00,VWS V14.01,2013-02-06 14:49:00,
2013-02-06 08:54:00,54.1,52.1,29.97,SE,124,0.0,5.0,93,0.00,,---,0.00,40.00,VWS V14.01,2013-02-06 14:54:00,
2013-02-06 08:59:00,54.2,52.2,29.97,SE,124,0.0,5.0,93,0.00,,---,0.00,63.00,VWS V14.01,2013-02-06 14:59:00,
2013-02-06 09:04:00,54.3,52.3,29.97,SE,124,0.0,4.0,93,0.00,,---,0.00,69.00,VWS V14.01,2013-02-06 15:04:00,
2013-02-06 09:09:00,54.4,52.4,29.97,SE,124,0.0,4.0,93,0.00,,---,0.00,69.00,VWS V14.01,2013-02-06 15:09:00,
2013-02-06 09:14:00,54.6,52.6,29.96,SE,124,0.0,4.0,93,0.00,,---,0.00,86.00,VWS V14.01,2013-02-06 15:14:00,
2013-02-06 09:19:00,54.7,52.7,29.96,SE,124,0.0,4.0,93,0.00,,---,0.00,60.00,VWS V14.01,2013-02-06 15:19:00,
2013-02-06 09:24:00,54.8,52.8,29.96,SE,124,3.0,5.0,93,0.00,,---,0.00,54.00,VWS V14.01,2013-02-06 15:24:00,
2013-02-06 09:29:00,54.8,52.8,29.96,SE,124,0.0,5.0,93,0.00,,---,0.00,90.00,VWS V14.01,2013-02-06 15:29:00,
2013-02-06 09:34:00,54.9,52.9,29.96,SE,124,0.0,3.0,93,0.00,,---,0.00,88.00,VWS V14.01,2013-02-06 15:34:00,
2013-02-06 09:39:00,55.1,53.1,29.95,SE,124,0.0,4.0,93,0.00,,---,0.00,107.00,VWS V14.01,2013-02-06 15:39:00,
2013-02-06 09:44:00,55.3,53.3,29.95,SE,124,2.0,6.0,93,0.00,,---,0.00,79.00,VWS V14.01,2013-02-06 15:44:00,
2013-02-06 09:49:00,55.6,53.6,29.95,SE,124,0.0,6.0,93,0.00,,---,0.00,79.00,VWS V14.01,2013-02-06 15:49:00,
2013-02-06 09:54:00,55.7,53.7,29.95,SE,124,2.0,6.0,93,0.00,,---,0.00,86.00,VWS V14.01,2013-02-06 15:54:00,
2013-02-06 09:59:00,55.9,53.9,29.95,SE,145,0.0,8.0,93,0.00,,---,0.00,105.00,VWS V14.01,2013-02-06 15:59:00,
2013-02-06 10:04:00,56.1,54.1,29.95,SE,144,0.0,5.0,93,0.00,,---,0.00,107.00,VWS V14.01,2013-02-06 16:04:00,
2013-02-06 10:09:00,56.2,53.9,29.95,SE,145,5.0,6.0,92,0.00,,---,0.00,105.00,VWS V14.01,2013-02-06 16:09:00,
2013-02-06 10:14:00,56.3,54.0,29.95,SSE,151,4.0,11.0,92,0.00,,---,0.00,153.00,VWS V14.01,2013-02-06 16:14:00,
2013-02-06 10:19:00,56.7,54.4,29.95,SE,132,8.0,12.0,92,0.00,,---,0.00,113.00,VWS V14.01,2013-02-06 16:19:00,
2013-02-06 10:24:00,56.9,54.6,29.95,SSE,154,4.0,12.0,92,0.00,,---,0.00,105.00,VWS V14.01,2013-02-06 16:24:00,
2013-02-06 10:29:00,56.9,54.3,29.95,SSE,148,5.0,12.0,91,0.00,,---,0.00,156.00,VWS V14.01,2013-02-06 16:29:00,
2013-02-06 10:34:00,57.2,54.6,29.95,SSE,157,7.0,10.0,91,0.00,,---,0.00,130.00,VWS V14.01,2013-02-06 16:34:00,
2013-02-06 10:39:00,57.3,54.4,29.95,SSE,155,6.0,12.0,90,0.00,,---,0.00,167.00,VWS V14.01,2013-02-06 16:39:00,
2013-02-06 10:44:00,57.7,54.8,29.95,SE,144,4.0,12.0,90,0.00,,---,0.00,294.00,VWS V14.01,2013-02-06 16:44:00,
2013-02-06 10:49:00,58.1,54.6,29.95,SE,146,6.0,12.0,88,0.00,,---,0.00,241.00,VWS V14.01,2013-02-06 16:49:00,
2013-02-06 10:54:00,58.6,55.1,29.95,SSE,153,4.0,12.0,88,0.00,,---,0.00,360.00,VWS V14.01,2013-02-06 16:54:00,
2013-02-06 10:59:00,59.0,55.1,29.94,SSE,161,8.0,12.0,87,0.00,,---,0.00,622.00,VWS V14.01,2013-02-06 16:59:00,
2013-02-06 11:04:00,59.6,55.1,29.94,SSE,161,7.0,13.0,85,0.00,,---,0.00,587.00,VWS V14.01,2013-02-06 17:04:00,
2013-02-06 11:09:00,60.0,54.5,29.94,SE,143,5.0,15.0,82,0.00,,---,0.00,635.00,VWS V14.01,2013-02-06 17:09:00,
2013-02-06 11:14:00,60.0,53.8,29.94,SSE,153,8.0,16.0,80,0.00,,---,0.00,232.00,VWS V14.01,2013-02-06 17:14:00,
2013-02-06 11:19:00,60.5,54.3,29.93,SSE,162,4.0,16.0,80,0.00,,---,0.00,251.00,VWS V14.01,2013-02-06 17:19:00,
2013-02-06 11:24:00,60.9,54.0,29.93,SE,139,9.0,16.0,78,0.00,,---,0.00,666.00,VWS V14.01,2013-02-06 17:24:00,
2013-02-06 11:29:00,61.7,54.4,29.93,SSE,159,5.0,16.0,77,0.00,,---,0.00,775.00,VWS V14.01,2013-02-06 17:29:00,
2013-02-06 11:34:00,61.4,53.4,29.93,South,175,5.0,11.0,75,0.00,,---,0.00,747.00,VWS V14.01,2013-02-06 17:34:00,
2013-02-06 11:39:00,61.8,53.1,29.92,SSE,165,5.0,16.0,73,0.00,,---,0.00,213.00,VWS V14.01,2013-02-06 17:39:00,
2013-02-06 11:44:00,61.8,53.1,29.92,SSE,168,1.0,16.0,73,0.00,,---,0.00,248.00,VWS V14.01,2013-02-06 17:44:00,
2013-02-06 11:49:00,61.5,53.2,29.92,SSE,166,6.0,16.0,74,0.00,,---,0.00,241.00,VWS V14.01,2013-02-06 17:49:00,
2013-02-06 11:54:00,62.1,53.7,29.92,South,173,4.0,16.0,74,0.00,,---,0.00,671.00,VWS V14.01,2013-02-06 17:54:00,
2013-02-06 11:59:00,61.9,53.2,29.91,SSE,157,8.0,16.0,73,0.00,,---,0.00,492.00,VWS V14.01,2013-02-06 17:59:00,
2013-02-06 12:04:00,62.3,53.5,29.91,SE,138,0.0,8.0,73,0.00,,---,0.00,722.00,VWS V14.01,2013-02-06 18:04:00,
2013-02-06 12:09:00,63.2,53.7,29.91,SE,140,6.0,15.0,71,0.00,,---,0.00,751.00,VWS V14.01,2013-02-06 18:09:00,
2013-02-06 12:14:00,63.0,53.5,29.91,SE,131,4.0,15.0,71,0.00,,---,0.00,751.00,VWS V14.01,2013-02-06 18:14:00,
2013-02-06 12:19:00,64.5,54.1,29.90,SSE,148,2.0,15.0,69,0.00,,---,0.00,715.00,VWS V14.01,2013-02-06 18:19:00,
2013-02-06 12:24:00,64.8,54.0,29.89,SE,132,2.0,15.0,68,0.00,,---,0.00,775.00,VWS V14.01,2013-02-06 18:24:00,
2013-02-06 12:29:00,64.4,54.4,29.89,South,172,0.0,15.0,70,0.00,,---,0.00,680.00,VWS V14.01,2013-02-06 18:29:00,
2013-02-06 12:34:00,65.3,54.5,29.89,SE,136,3.0,12.0,68,0.00,,---,0.00,694.00,VWS V14.01,2013-02-06 18:34:00,
2013-02-06 12:39:00,65.4,55.0,29.88,SSE,163,4.0,16.0,69,0.00,,---,0.00,731.00,VWS V14.01,2013-02-06 18:39:00,
2013-02-06 12:44:00,65.6,54.8,29.88,SE,128,9.0,16.0,68,0.00,,---,0.00,770.00,VWS V14.01,2013-02-06 18:44:00,
2013-02-06 12:49:00,64.9,54.1,29.88,SE,142,8.0,16.0,68,0.00,,---,0.00,260.00,VWS V14.01,2013-02-06 18:49:00,
2013-02-06 12:54:00,64.9,54.1,29.87,SE,131,4.0,16.0,68,0.00,,---,0.00,204.00,VWS V14.01,2013-02-06 18:54:00,
2013-02-06 12:59:00,65.5,53.8,29.87,South,169,3.0,16.0,66,0.00,,---,0.00,659.00,VWS V14.01,2013-02-06 18:59:00,
2013-02-06 13:04:00,66.2,54.5,29.86,SSE,164,15.0,15.0,66,0.00,,---,0.00,698.00,VWS V14.01,2013-02-06 19:04:00,
2013-02-06 13:09:00,66.2,54.1,29.86,South,169,7.0,15.0,65,0.00,,---,0.00,684.00,VWS V14.01,2013-02-06 19:09:00,
2013-02-06 13:14:00,65.8,53.7,29.86,SSE,159,7.0,16.0,65,0.00,,---,0.00,619.00,VWS V14.01,2013-02-06 19:14:00,
2013-02-06 13:19:00,66.6,54.1,29.85,SSE,168,10.0,16.0,64,0.00,,---,0.00,664.00,VWS V14.01,2013-02-06 19:19:00,
2013-02-06 13:24:00,67.0,54.0,29.85,SSE,156,5.0,16.0,63,0.00,,---,0.00,717.00,VWS V14.01,2013-02-06 19:24:00,
2013-02-06 13:29:00,67.0,54.0,29.84,SSE,160,7.0,16.0,63,0.00,,---,0.00,689.00,VWS V14.01,2013-02-06 19:29:00,
2013-02-06 13:34:00,67.7,54.2,29.84,SE,141,13.0,13.0,62,0.00,,---,0.00,652.00,VWS V14.01,2013-02-06 19:34:00,
2013-02-06 13:39:00,67.8,53.9,29.83,SSE,148,6.0,14.0,61,0.00,,---,0.00,654.00,VWS V14.01,2013-02-06 19:39:00,
2013-02-06 13:44:00,67.8,53.9,29.83,SSE,155,1.0,14.0,61,0.00,,---,0.00,656.00,VWS V14.01,2013-02-06 19:44:00,
2013-02-06 13:49:00,68.1,53.7,29.82,SSE,152,6.0,14.0,60,0.00,,---,0.00,640.00,VWS V14.01,2013-02-06 19:49:00,
2013-02-06 13:54:00,68.3,53.9,29.82,SSE,157,11.0,14.0,60,0.00,,---,0.00,628.00,VWS V14.01,2013-02-06 19:54:00,
2013-02-06 13:59:00,68.6,53.7,29.81,South,176,7.0,15.0,59,0.00,,---,0.00,626.00,VWS V14.01,2013-02-06 19:59:00,
2013-02-06 14:04:00,69.0,54.1,29.81,SSE,158,8.0,10.0,59,0.00,,---,0.00,628.00,VWS V14.01,2013-02-06 20:04:00,
2013-02-06 14:09:00,69.2,53.8,29.80,SE,131,6.0,14.0,58,0.00,,---,0.00,599.00,VWS V14.01,2013-02-06 20:09:00,
2013-02-06 14:14:00,68.9,54.0,29.80,SSE,167,7.0,18.0,59,0.00,,---,0.00,601.00,VWS V14.01,2013-02-06 20:14:00,
2013-02-06 14:19:00,69.4,54.5,29.80,SE,139,5.0,18.0,59,0.00,,---,0.00,608.00,VWS V14.01,2013-02-06 20:19:00,
2013-02-06 14:24:00,69.5,54.1,29.79,SSW,211,11.0,18.0,58,0.00,,---,0.00,599.00,VWS V14.01,2013-02-06 20:24:00,
2013-02-06 14:29:00,70.5,54.1,29.79,SSE,149,7.0,18.0,56,0.00,,---,0.00,592.00,VWS V14.01,2013-02-06 20:29:00,
2013-02-06 14:34:00,70.3,53.9,29.78,SE,136,7.0,12.0,56,0.00,,---,0.00,575.00,VWS V14.01,2013-02-06 20:34:00,
2013-02-06 14:39:00,70.7,54.2,29.78,SE,130,10.0,14.0,56,0.00,,---,0.00,571.00,VWS V14.01,2013-02-06 20:39:00,
2013-02-06 14:44:00,71.1,54.1,29.78,SE,140,12.0,14.0,55,0.00,,---,0.00,563.00,VWS V14.01,2013-02-06 20:44:00,
2013-02-06 14:49:00,70.9,53.4,29.77,SSE,156,10.0,14.0,54,0.00,,---,0.00,548.00,VWS V14.01,2013-02-06 20:49:00,
2013-02-06 14:54:00,71.0,53.0,29.77,SSE,158,7.0,17.0,53,0.00,,---,0.00,540.00,VWS V14.01,2013-02-06 20:54:00,
2013-02-06 14:59:00,71.7,53.2,29.77,South,180,5.0,17.0,52,0.00,,---,0.00,524.00,VWS V14.01,2013-02-06 20:59:00,
2013-02-06 15:04:00,71.7,53.7,29.77,SSE,148,6.0,16.0,53,0.00,,---,0.00,519.00,VWS V14.01,2013-02-06 21:04:00,
2013-02-06 15:09:00,71.9,53.3,29.77,SSE,155,4.0,16.0,52,0.00,,---,0.00,506.00,VWS V14.01,2013-02-06 21:09:00,
2013-02-06 15:14:00,72.1,52.5,29.77,South,172,5.0,16.0,50,0.00,,---,0.00,492.00,VWS V14.01,2013-02-06 21:14:00,
2013-02-06 15:19:00,71.9,52.8,29.76,SSE,166,1.0,16.0,51,0.00,,---,0.00,485.00,VWS V14.01,2013-02-06 21:19:00,
2013-02-06 15:24:00,72.6,52.9,29.76,SSE,152,7.0,16.0,50,0.00,,---,0.00,469.00,VWS V14.01,2013-02-06 21:24:00,
2013-02-06 15:29:00,73.0,53.3,29.76,SSE,159,7.0,16.0,50,0.00,,---,0.00,462.00,VWS V14.01,2013-02-06 21:29:00,
2013-02-06 15:34:00,72.7,53.0,29.76,SSE,163,7.0,11.0,50,0.00,,---,0.00,452.00,VWS V14.01,2013-02-06 21:34:00,
2013-02-06 15:39:00,72.7,53.0,29.75,SSE,152,6.0,17.0,50,0.00,,---,0.00,439.00,VWS V14.01,2013-02-06 21:39:00,
2013-02-06 15:44:00,72.9,52.6,29.75,SSE,159,7.0,17.0,49,0.00,,---,0.00,418.00,VWS V14.01,2013-02-06 21:44:00,
2013-02-06 15:49:00,72.9,52.6,29.75,SE,146,8.0,17.0,49,0.00,,---,0.00,411.00,VWS V14.01,2013-02-06 21:49:00,
2013-02-06 15:54:00,73.0,52.2,29.75,SSE,158,5.0,17.0,48,0.00,,---,0.00,399.00,VWS V14.01,2013-02-06 21:54:00,
2013-02-06 15:59:00,73.0,52.2,29.75,SSE,155,4.0,17.0,48,0.00,,---,0.00,383.00,VWS V14.01,2013-02-06 21:59:00,
2013-02-06 16:04:00,73.5,52.1,29.75,SSE,157,6.0,17.0,47,0.00,,---,0.00,367.00,VWS V14.01,2013-02-06 22:04:00,
2013-02-06 16:09:00,73.4,52.0,29.75,South,169,8.0,17.0,47,0.00,,---,0.00,353.00,VWS V14.01,2013-02-06 22:09:00,
2013-02-06 16:14:00,73.4,51.4,29.74,SSE,154,15.0,18.0,46,0.00,,---,0.00,339.00,VWS V14.01,2013-02-06 22:14:00,
2013-02-06 16:18:00,73.3,51.9,29.75,SE,141,17.0,18.0,47,0.00,,---,0.00,322.00,VWS V14.01,2013-02-06 22:18:00,
2013-02-06 16:23:00,73.2,51.8,29.74,SE,138,13.0,18.0,47,0.00,,---,0.00,308.00,VWS V14.01,2013-02-06 22:23:00,
2013-02-06 16:28:00,73.1,51.7,29.74,SE,143,7.0,18.0,47,0.00,,---,0.00,290.00,VWS V14.01,2013-02-06 22:28:00,
2013-02-06 16:33:00,73.1,51.7,29.74,SE,138,6.0,14.0,47,0.00,,---,0.00,272.00,VWS V14.01,2013-02-06 22:33:00,
2013-02-06 16:38:00,73.5,51.5,29.74,South,184,6.0,14.0,46,0.00,,---,0.00,260.00,VWS V14.01,2013-02-06 22:38:00,
2013-02-06 16:43:00,73.5,51.5,29.74,SSE,153,9.0,17.0,46,0.00,,---,0.00,243.00,VWS V14.01,2013-02-06 22:43:00,
2013-02-06 16:48:00,73.4,51.4,29.74,SSE,155,10.0,17.0,46,0.00,,---,0.00,218.00,VWS V14.01,2013-02-06 22:48:00,
2013-02-06 16:53:00,73.5,51.5,29.74,SE,144,8.0,17.0,46,0.00,,---,0.00,204.00,VWS V14.01,2013-02-06 22:53:00,
2013-02-06 16:58:00,73.2,51.8,29.74,SE,138,4.0,17.0,47,0.00,,---,0.00,181.00,VWS V14.01,2013-02-06 22:58:00,
2013-02-06 17:03:00,73.2,51.8,29.74,SSE,150,7.0,13.0,47,0.00,,---,0.00,162.00,VWS V14.01,2013-02-06 23:03:00,
2013-02-06 17:08:00,73.2,51.8,29.73,SSE,151,5.0,14.0,47,0.00,,---,0.00,146.00,VWS V14.01,2013-02-06 23:08:00,
2013-02-06 17:13:00,73.0,51.6,29.73,SSE,167,8.0,14.0,47,0.00,,---,0.00,127.00,VWS V14.01,2013-02-06 23:13:00,
2013-02-06 17:18:00,73.0,51.6,29.73,SSE,148,10.0,14.0,47,0.00,,---,0.00,109.00,VWS V14.01,2013-02-06 23:18:00,
2013-02-06 17:23:00,72.9,51.5,29.73,SSE,163,4.0,15.0,47,0.00,,---,0.00,90.00,VWS V14.01,2013-02-06 23:23:00,
2013-02-06 17:28:00,72.8,50.8,29.73,SSE,157,2.0,15.0,46,0.00,,---,0.00,74.00,VWS V14.01,2013-02-06 23:28:00,
2013-02-06 17:33:00,72.5,51.2,29.73,SSE,157,7.0,7.0,47,0.00,,---,0.00,58.00,VWS V14.01,2013-02-06 23:33:00,
2013-02-06 17:38:00,72.3,51.0,29.73,SSE,149,1.0,13.0,47,0.00,,---,0.00,44.00,VWS V14.01,2013-02-06 23:38:00,
2013-02-06 17:43:00,71.8,51.1,29.74,SSE,150,1.0,13.0,48,0.00,,---,0.00,33.00,VWS V14.01,2013-02-06 23:43:00,
2013-02-06 17:48:00,71.5,51.4,29.74,SSE,148,8.0,13.0,49,0.00,,---,0.00,23.00,VWS V14.01,2013-02-06 23:48:00,
2013-02-06 17:53:00,71.1,51.0,29.74,SE,146,0.0,13.0,49,0.00,,---,0.00,18.00,VWS V14.01,2013-02-06 23:53:00,
2013-02-06 17:58:00,70.4,51.4,29.74,SE,143,2.0,13.0,51,0.00,,---,0.00,12.00,VWS V14.01,2013-02-06 23:58:00,
2013-02-06 18:03:00,69.8,51.4,29.74,SE,144,2.0,6.0,52,0.00,,---,0.00,9.00,VWS V14.01,2013-02-07 00:03:00,
2013-02-06 18:08:00,69.3,50.9,29.74,SE,144,0.0,6.0,52,0.00,,---,0.00,5.00,VWS V14.01,2013-02-07 00:08:00,
2013-02-06 18:13:00,68.7,50.9,29.74,SE,143,0.0,6.0,53,0.00,,---,0.00,0.00,VWS V14.01,2013-02-07 00:13:00,
2013-02-06 18:18:00,68.1,50.8,29.74,SE,143,0.0,6.0,54,0.00,,---,0.00,0.00,VWS V14.01,2013-02-07 00:18:00,
2013-02-06 18:23:00,67.6,50.9,29.74,SE,143,0.0,6.0,55,0.00,,---,0.00,0.00,VWS V14.01,2013-02-07 00:23:00,
2013-02-06 18:28:00,66.8,50.1,29.74,SE,143,0.0,6.0,55,0.00,,---,0.00,0.00,VWS V14.01,2013-02-07 00:28:00,
2013-02-06 18:33:00,65.8,50.2,29.74,SE,143,0.0,0.0,57,0.00,,---,0.00,0.00,VWS V14.01,2013-02-07 00:33:00,
2013-02-06 18:38:00,64.8,49.7,29.74,SE,143,0.0,0.0,58,0.00,,---,0.00,0.00,VWS V14.01,2013-02-07 00:38:00,
2013-02-06 18:43:00,63.9,49.8,29.74,SE,143,0.0,0.0,60,0.00,,---,0.00,0.00,VWS V14.01,2013-02-07 00:43:00,
2013-02-06 18:48:00,63.0,49.4,29.74,SE,143,0.0,0.0,61,0.00,,---,0.00,0.00,VWS V14.01,2013-02-07 00:48:00,
2013-02-06 18:53:00,62.3,49.1,29.75,SE,143,0.0,0.0,62,0.00,,---,0.00,0.00,VWS V14.01,2013-02-07 00:53:00,
2013-02-06 18:58:00,61.7,49.4,29.75,SE,143,0.0,0.0,64,0.00,,---,0.00,0.00,VWS V14.01,2013-02-07 00:58:00,
2013-02-06 19:03:00,61.1,48.8,29.75,SE,143,0.0,0.0,64,0.00,,---,0.00,0.00,VWS V14.01,2013-02-07 01:03:00,
2013-02-06 19:08:00,60.7,49.3,29.75,SE,143,0.0,0.0,66,0.00,,---,0.00,0.00,VWS V14.01,2013-02-07 01:08:00,
2013-02-06 19:13:00,60.6,49.6,29.75,SE,143,0.0,0.0,67,0.00,,---,0.00,0.00,VWS V14.01,2013-02-07 01:13:00,
2013-02-06 19:18:00,60.4,49.8,29.75,SE,143,0.0,0.0,68,0.00,,---,0.00,0.00,VWS V14.01,2013-02-07 01:18:00,
2013-02-06 19:23:00,60.6,50.0,29.75,SE,143,0.0,0.0,68,0.00,,---,0.00,0.00,VWS V14.01,2013-02-07 01:23:00,
2013-02-06 19:28:00,61.1,50.5,29.76,SE,143,0.0,0.0,68,0.00,,---,0.00,0.00,VWS V14.01,2013-02-07 01:28:00,
2013-02-06 19:33:00,61.6,51.0,29.76,SE,143,0.0,0.0,68,0.00,,---,0.00,0.00,VWS V14.01,2013-02-07 01:33:00,
2013-02-06 19:38:00,63.1,51.6,29.76,SE,143,0.0,0.0,66,0.00,,---,0.00,0.00,VWS V14.01,2013-02-07 01:38:00,
2013-02-06 19:43:00,64.0,52.0,29.76,SE,143,0.0,1.0,65,0.00,,---,0.00,0.00,VWS V14.01,2013-02-07 01:43:00,
2013-02-06 19:48:00,64.4,52.4,29.76,SE,143,0.0,1.0,65,0.00,,---,0.00,0.00,VWS V14.01,2013-02-07 01:48:00,
2013-02-06 19:53:00,63.8,51.8,29.76,SE,143,0.0,3.0,65,0.00,,---,0.00,0.00,VWS V14.01,2013-02-07 01:53:00,
2013-02-06 19:58:00,63.0,51.5,29.76,SE,143,0.0,3.0,66,0.00,,---,0.00,0.00,VWS V14.01,2013-02-07 01:58:00,
2013-02-06 20:03:00,62.4,51.3,29.76,SE,143,0.0,0.0,67,0.00,,---,0.00,0.00,VWS V14.01,2013-02-07 02:03:00,
2013-02-06 20:08:00,61.6,51.0,29.76,SE,143,0.0,3.0,68,0.00,,---,0.00,0.00,VWS V14.01,2013-02-07 02:08:00,
2013-02-06 20:13:00,61.3,51.1,29.76,SE,141,0.0,3.0,69,0.00,,---,0.00,0.00,VWS V14.01,2013-02-07 02:13:00,
2013-02-06 20:18:00,61.4,51.2,29.76,SE,138,2.0,4.0,69,0.00,,---,0.00,0.00,VWS V14.01,2013-02-07 02:18:00,
2013-02-06 20:23:00,61.7,51.4,29.76,SE,131,3.0,5.0,69,0.00,,---,0.00,0.00,VWS V14.01,2013-02-07 02:23:00,
2013-02-06 20:28:00,61.9,51.6,29.76,SE,130,2.0,5.0,69,0.00,,---,0.00,0.00,VWS V14.01,2013-02-07 02:28:00,
2013-02-06 20:33:00,62.1,51.8,29.76,ESE,102,2.0,8.0,69,0.00,,---,0.00,0.00,VWS V14.01,2013-02-07 02:33:00,
2013-02-06 20:38:00,62.2,51.5,29.76,ESE,111,3.0,8.0,68,0.00,,---,0.00,0.00,VWS V14.01,2013-02-07 02:38:00,
2013-02-06 20:43:00,62.2,51.9,29.76,ESE,111,7.0,8.0,69,0.00,,---,0.00,0.00,VWS V14.01,2013-02-07 02:43:00,
2013-02-06 20:48:00,62.4,52.1,29.76,ESE,114,4.0,9.0,69,0.00,,---,0.00,0.00,VWS V14.01,2013-02-07 02:48:00,
2013-02-06 20:53:00,62.9,52.2,29.76,ESE,121,7.0,10.0,68,0.00,,---,0.00,0.00,VWS V14.01,2013-02-07 02:53:00,
2013-02-06 20:58:00,63.0,52.3,29.76,ESE,109,4.0,10.0,68,0.00,,---,0.00,0.00,VWS V14.01,2013-02-07 02:58:00,
2013-02-06 21:03:00,62.8,52.1,29.76,ESE,117,4.0,9.0,68,0.00,,---,0.00,0.00,VWS V14.01,2013-02-07 03:03:00,
2013-02-06 21:08:00,62.7,52.4,29.76,ESE,115,5.0,9.0,69,0.00,,---,0.00,0.00,VWS V14.01,2013-02-07 03:08:00,
2013-02-06 21:13:00,62.5,52.2,29.76,ESE,111,4.0,9.0,69,0.00,,---,0.00,0.00,VWS V14.01,2013-02-07 03:13:00,
2013-02-06 21:18:00,62.2,52.3,29.76,ESE,122,5.0,9.0,70,0.00,,---,0.00,0.00,VWS V14.01,2013-02-07 03:18:00,
2013-02-06 21:23:00,62.1,52.2,29.76,ESE,113,3.0,9.0,70,0.00,,---,0.00,0.00,VWS V14.01,2013-02-07 03:23:00,
2013-02-06 21:28:00,61.9,52.4,29.76,ESE,115,2.0,9.0,71,0.00,,---,0.00,0.00,VWS V14.01,2013-02-07 03:28:00,
2013-02-06 21:33:00,61.5,52.0,29.76,ESE,106,3.0,7.0,71,0.00,,---,0.00,0.00,VWS V14.01,2013-02-07 03:33:00,
2013-02-06 21:38:00,61.2,52.1,29.76,ESE,103,4.0,8.0,72,0.00,,---,0.00,0.00,VWS V14.01,2013-02-07 03:38:00,
2013-02-06 21:43:00,60.9,51.8,29.76,ESE,109,3.0,8.0,72,0.00,,---,0.00,0.00,VWS V14.01,2013-02-07 03:43:00,
2013-02-06 21:48:00,60.7,52.0,29.76,ESE,111,5.0,8.0,73,0.00,,---,0.00,0.00,VWS V14.01,2013-02-07 03:48:00,
2013-02-06 21:53:00,61.0,52.3,29.76,ESE,109,7.0,8.0,73,0.00,,---,0.00,0.00,VWS V14.01,2013-02-07 03:53:00,
2013-02-06 21:58:00,61.4,52.7,29.76,ESE,117,5.0,11.0,73,0.00,,---,0.00,0.00,VWS V14.01,2013-02-07 03:58:00,
2013-02-06 22:03:00,61.7,53.0,29.76,East,100,7.0,9.0,73,0.00,,---,0.00,0.00,VWS V14.01,2013-02-07 04:03:00,
2013-02-06 22:08:00,61.7,53.0,29.76,ESE,122,3.0,9.0,73,0.00,,---,0.00,0.00,VWS V14.01,2013-02-07 04:08:00,
2013-02-06 22:13:00,61.6,52.9,29.76,ESE,111,5.0,10.0,73,0.00,,---,0.00,0.00,VWS V14.01,2013-02-07 04:13:00,
2013-02-06 22:18:00,61.3,52.6,29.76,East,98,6.0,11.0,73,0.00,,---,0.00,0.00,VWS V14.01,2013-02-07 04:18:00,
2013-02-06 22:23:00,60.8,52.5,29.76,ESE,104,3.0,11.0,74,0.00,,---,0.00,0.00,VWS V14.01,2013-02-07 04:23:00,
2013-02-06 22:28:00,60.5,52.2,29.77,SE,130,5.0,11.0,74,0.00,,---,0.00,0.00,VWS V14.01,2013-02-07 04:28:00,
2013-02-06 22:33:00,60.4,52.1,29.77,East,98,5.0,10.0,74,0.00,,---,0.00,0.00,VWS V14.01,2013-02-07 04:33:00,
2013-02-06 22:38:00,60.1,51.8,29.77,East,94,7.0,10.0,74,0.00,,---,0.00,0.00,VWS V14.01,2013-02-07 04:38:00,
2013-02-06 22:43:00,59.7,51.8,29.77,East,101,6.0,10.0,75,0.00,,---,0.00,0.00,VWS V14.01,2013-02-07 04:43:00,
2013-02-06 22:48:00,59.3,51.4,29.77,ESE,111,4.0,10.0,75,0.00,,---,0.00,0.00,VWS V14.01,2013-02-07 04:48:00,
2013-02-06 22:53:00,59.0,51.5,29.76,ESE,104,4.0,10.0,76,0.00,,---,0.00,0.00,VWS V14.01,2013-02-07 04:53:00,
2013-02-06 22:58:00,58.7,51.5,29.76,ESE,109,7.0,10.0,77,0.00,,---,0.00,0.00,VWS V14.01,2013-02-07 04:58:00,
2013-02-06 23:00:00,58.7,51.5,29.76,SE,128,3.0,10.0,77,0.00,,---,0.00,0.00,VWS V14.01,2013-02-07 05:00:00,
2013-02-06 23:05:00,58.7,51.5,29.76,ESE,106,2.0,9.0,77,0.00,,---,0.00,0.00,VWS V14.01,2013-02-07 05:05:00,
2013-02-06 23:10:00,58.7,51.9,29.76,ESE,117,4.0,10.0,78,0.00,,---,0.00,0.00,VWS V14.01,2013-02-07 05:10:00,
2013-02-06 23:15:00,58.7,51.9,29.76,ESE,110,7.0,10.0,78,0.00,,---,0.00,0.00,VWS V14.01,2013-02-07 05:15:00,
2013-02-06 23:20:00,58.8,52.0,29.76,ESE,111,7.0,10.0,78,0.00,,---,0.00,0.00,VWS V14.01,2013-02-07 05:20:00,
2013-02-06 23:25:00,58.9,52.4,29.76,ESE,116,8.0,10.0,79,0.00,,---,0.00,0.00,VWS V14.01,2013-02-07 05:25:00,
2013-02-06 23:30:00,58.9,52.4,29.76,ESE,109,5.0,7.0,79,0.00,,---,0.00,0.00,VWS V14.01,2013-02-07 05:30:00,
2013-02-06 23:35:00,58.9,52.8,29.76,ESE,114,5.0,8.0,80,0.00,,---,0.00,0.00,VWS V14.01,2013-02-07 05:35:00,
2013-02-06 23:40:00,58.8,52.7,29.76,SE,132,3.0,9.0,80,0.00,,---,0.00,0.00,VWS V14.01,2013-02-07 05:40:00,
2013-02-06 23:45:00,58.7,52.6,29.76,ESE,115,5.0,10.0,80,0.00,,---,0.00,0.00,VWS V14.01,2013-02-07 05:45:00,
2013-02-06 23:50:00,58.6,52.8,29.76,SE,128,10.0,10.0,81,0.00,,---,0.00,0.00,VWS V14.01,2013-02-07 05:50:00,
2013-02-06 23:55:00,58.7,53.2,29.76,ESE,118,3.0,13.0,82,0.00,,---,0.00,0.00,VWS V14.01,2013-02-07 05:55:00,